createdAt,value
2018-11-03T00:00:29.362Z,35.33
2018-11-03T00:02:58.699Z,24.53
2018-11-03T00:05:27.913Z,21.03
2018-11-03T00:07:57.120Z,27.00
2018-11-03T00:10:26.456Z,38.13
2018-11-03T00:12:55.636Z,49.37
2018-11-03T00:15:24.875Z,42.60
2018-11-03T00:17:54.348Z,42.00
2018-11-03T00:20:23.547Z,41.80
2018-11-03T00:22:52.743Z,45.10
2018-11-03T00:25:21.960Z,42.00
2018-11-03T00:27:51.198Z,40.43
2018-11-03T00:30:20.417Z,38.60
2018-11-03T00:32:49.639Z,41.23
2018-11-03T00:35:18.902Z,41.77
2018-11-03T00:43:48.377Z,38.73
2018-11-03T00:46:17.550Z,22.77
2018-11-03T00:48:46.768Z,21.50
2018-11-03T00:51:15.950Z,25.03
2018-11-03T00:53:45.165Z,22.40
2018-11-03T00:56:14.373Z,20.70
2018-11-03T00:58:43.607Z,35.30
2018-11-03T01:01:12.765Z,23.20
2018-11-03T01:03:42.329Z,22.57
2018-11-03T01:06:11.489Z,24.10
2018-11-03T01:08:40.683Z,36.50
2018-11-03T01:11:09.853Z,45.77
2018-11-03T01:13:39.268Z,45.13
2018-11-03T01:16:08.551Z,30.70
2018-11-03T01:18:37.794Z,39.63
2018-11-03T01:21:07.042Z,48.83
2018-11-03T01:23:36.285Z,42.50
2018-11-03T01:26:05.471Z,50.93
2018-11-03T01:28:34.665Z,28.23
2018-11-03T01:31:03.842Z,37.10
2018-11-03T01:33:33.097Z,43.67
2018-11-03T01:36:23.068Z,53.20
2018-11-03T01:38:52.277Z,47.10
2018-11-03T01:41:21.485Z,47.60
2018-11-03T01:43:50.661Z,47.97
2018-11-03T01:46:19.861Z,42.70
2018-11-03T01:48:49.024Z,44.43
2018-11-03T01:51:18.194Z,44.23
2018-11-03T01:53:47.427Z,41.77
2018-11-03T01:56:16.653Z,37.50
2018-11-03T01:58:45.866Z,43.17
2018-11-03T02:01:15.032Z,40.07
2018-11-03T02:03:44.221Z,43.33
2018-11-03T02:06:13.400Z,36.43
2018-11-03T02:08:42.601Z,39.33
2018-11-03T02:11:12.581Z,43.30
2018-11-03T02:13:41.822Z,39.47
2018-11-03T02:16:11.071Z,40.07
2018-11-03T02:18:40.262Z,38.90
2018-11-03T02:21:09.489Z,42.50
2018-11-03T02:23:38.682Z,40.93
2018-11-03T02:26:07.897Z,42.00
2018-11-03T02:28:37.107Z,37.63
2018-11-03T02:31:06.781Z,46.07
2018-11-03T02:33:35.972Z,54.83
2018-11-03T02:36:05.206Z,37.00
2018-11-03T02:38:34.866Z,41.70
2018-11-03T02:41:04.086Z,40.40
2018-11-03T02:43:33.297Z,40.67
2018-11-03T02:46:23.634Z,38.03
2018-11-03T02:48:52.851Z,38.67
2018-11-03T02:51:22.060Z,38.67
2018-11-03T02:53:51.277Z,41.53
2018-11-03T02:56:20.511Z,38.80
2018-11-03T02:58:49.700Z,38.97
2018-11-03T03:01:18.915Z,37.30
2018-11-03T03:03:48.104Z,37.67
2018-11-03T03:06:17.300Z,28.57
2018-11-03T03:08:46.705Z,42.63
2018-11-03T03:11:16.077Z,44.10
2018-11-03T03:13:45.297Z,40.43
2018-11-03T03:16:14.527Z,47.37
2018-11-03T03:18:43.843Z,43.07
2018-11-03T03:21:13.098Z,55.23
2018-11-03T03:23:42.261Z,47.17
2018-11-03T03:26:11.461Z,81.47
2018-11-03T03:31:41.390Z,61.33
2018-11-03T03:34:10.611Z,81.63
2018-11-03T03:36:39.814Z,139.00
2018-11-03T03:39:10.767Z,90.67
2018-11-03T03:41:40.412Z,55.30
2018-11-03T03:44:09.604Z,49.57
2018-11-03T03:46:38.781Z,52.10
2018-11-03T03:49:08.021Z,50.37
2018-11-03T03:51:37.203Z,26.97
2018-11-03T03:54:06.494Z,40.90
2018-11-03T03:56:35.669Z,30.53
2018-11-03T03:59:04.874Z,24.50
2018-11-03T04:01:34.154Z,26.10
2018-11-03T04:04:03.418Z,40.43
2018-11-03T04:06:32.622Z,49.23
2018-11-03T04:09:01.848Z,49.40
2018-11-03T04:11:31.036Z,48.20
2018-11-03T04:14:00.252Z,47.57
2018-11-03T04:16:29.484Z,46.17
2018-11-03T04:18:58.682Z,47.00
2018-11-03T04:21:30.108Z,38.37
2018-11-03T04:23:59.742Z,21.37
2018-11-03T04:26:30.046Z,33.60
2018-11-03T04:28:59.726Z,46.47
2018-11-03T04:31:29.025Z,48.03
2018-11-03T04:33:58.388Z,48.13
2018-11-03T04:36:27.614Z,46.07
2018-11-03T04:38:56.814Z,42.90
2018-11-03T04:41:26.012Z,54.57
2018-11-03T04:43:55.255Z,53.93
2018-11-03T04:46:24.510Z,53.67
2018-11-03T04:48:57.833Z,52.83
2018-11-03T04:51:27.023Z,49.80
2018-11-03T04:53:56.227Z,56.57
2018-11-03T04:56:25.473Z,53.07
2018-11-03T04:58:54.682Z,41.47
2018-11-03T05:01:23.880Z,38.27
2018-11-03T05:03:53.101Z,52.10
2018-11-03T05:06:22.310Z,61.30
2018-11-03T05:08:51.480Z,53.80
2018-11-03T05:11:20.765Z,60.37
2018-11-03T05:13:49.943Z,58.20
2018-11-03T05:16:19.198Z,69.83
2018-11-03T05:18:48.427Z,63.10
2018-11-03T05:21:17.666Z,67.23
2018-11-03T05:23:46.879Z,52.93
2018-11-03T05:26:16.106Z,56.83
2018-11-03T05:28:45.350Z,67.57
2018-11-03T05:31:14.649Z,61.30
2018-11-03T05:33:43.941Z,64.93
2018-11-03T05:36:13.147Z,58.03
2018-11-03T05:38:42.354Z,60.53
2018-11-03T05:41:11.541Z,63.07
2018-11-03T05:43:40.782Z,56.97
2018-11-03T05:46:09.977Z,63.23
2018-11-03T05:48:39.242Z,58.70
2018-11-03T05:51:08.425Z,69.47
2018-11-03T05:53:37.641Z,57.20
2018-11-03T05:56:06.865Z,61.00
2018-11-03T05:58:36.150Z,65.93
2018-11-03T06:01:05.484Z,60.00
2018-11-03T06:03:34.706Z,56.40
2018-11-03T06:06:03.963Z,61.40
2018-11-03T06:08:33.186Z,59.27
2018-11-03T06:11:02.430Z,60.00
2018-11-03T06:13:31.589Z,61.47
2018-11-03T06:16:00.768Z,57.30
2018-11-03T06:18:29.985Z,48.27
2018-11-03T06:20:59.223Z,55.00
2018-11-03T06:23:28.411Z,51.00
2018-11-03T06:25:57.646Z,62.43
2018-11-03T06:28:26.945Z,63.57
2018-11-03T06:33:47.953Z,43.97
2018-11-03T06:36:17.193Z,57.40
2018-11-03T06:38:46.390Z,58.70
2018-11-03T06:41:15.793Z,54.17
2018-11-03T06:43:44.978Z,59.43
2018-11-03T06:46:14.153Z,60.70
2018-11-03T06:48:43.524Z,56.37
2018-11-03T06:51:12.734Z,61.43
2018-11-03T06:53:41.945Z,48.00
2018-11-03T06:56:11.169Z,60.20
2018-11-03T06:58:40.387Z,63.90
2018-11-03T07:01:09.684Z,61.20
2018-11-03T07:03:38.858Z,68.80
2018-11-03T07:06:08.046Z,73.77
2018-11-03T07:08:37.415Z,75.90
2018-11-03T07:11:06.594Z,75.80
2018-11-03T07:13:35.802Z,55.33
2018-11-03T07:16:05.601Z,70.13
2018-11-03T07:18:34.810Z,68.77
2018-11-03T07:21:04.054Z,63.97
2018-11-03T07:23:33.281Z,69.90
2018-11-03T07:26:02.621Z,63.53
2018-11-03T07:28:31.856Z,65.17
2018-11-03T07:31:01.053Z,69.30
2018-11-03T07:33:30.247Z,67.00
2018-11-03T07:35:59.623Z,76.43
2018-11-03T07:38:28.849Z,70.67
2018-11-03T07:40:58.146Z,79.57
2018-11-03T07:43:27.291Z,71.27
2018-11-03T07:45:56.481Z,65.90
2018-11-03T07:48:25.648Z,66.33
2018-11-03T07:51:24.230Z,77.43
2018-11-03T07:54:22.920Z,62.17
2018-11-03T08:03:22.530Z,61.43
2018-11-03T08:12:22.955Z,61.33
2018-11-03T08:18:22.528Z,52.30
2018-11-03T08:23:51.659Z,54.90
2018-11-03T08:26:20.855Z,54.77
2018-11-03T08:31:58.252Z,24.50
2018-11-03T08:34:27.432Z,25.80
2018-11-03T08:36:56.666Z,40.27
2018-11-03T08:39:25.842Z,22.73
2018-11-03T08:41:55.049Z,21.60
2018-11-03T08:44:25.018Z,20.17
2018-11-03T08:47:23.585Z,27.03
2018-11-03T08:50:12.606Z,25.70
2018-11-03T08:52:42.081Z,21.10
2018-11-03T08:55:24.244Z,19.30
2018-11-03T08:58:22.720Z,27.83
2018-11-03T09:10:23.078Z,27.70
2018-11-03T09:16:22.742Z,20.43
2018-11-03T09:21:52.289Z,17.83
2018-11-03T09:24:27.007Z,23.63
2018-11-03T09:27:23.103Z,18.73
2018-11-03T09:36:22.598Z,22.63
2018-11-03T09:45:22.681Z,18.43
2018-11-03T09:51:22.405Z,19.97
2018-11-03T10:03:12.457Z,14.53
2018-11-03T10:08:42.486Z,18.10
2018-11-03T10:11:24.079Z,16.37
2018-11-03T10:14:22.550Z,18.60
2018-11-03T10:16:51.742Z,14.47
2018-11-03T10:19:26.813Z,19.30
2018-11-03T10:21:56.865Z,16.00
2018-11-03T10:24:26.070Z,16.00
2018-11-03T10:26:55.293Z,15.03
2018-11-03T10:29:24.484Z,14.73
2018-11-03T10:34:40.927Z,15.20
2018-11-03T10:37:10.090Z,17.30
2018-11-03T10:39:39.372Z,16.30
2018-11-03T10:42:25.216Z,15.87
2018-11-03T10:44:54.389Z,14.80
2018-11-03T10:47:23.571Z,15.27
2018-11-03T10:49:52.792Z,15.40
2018-11-03T10:52:22.015Z,16.00
2018-11-03T10:54:51.196Z,14.87
2018-11-03T10:57:20.458Z,15.57
2018-11-03T10:59:49.653Z,15.27
2018-11-03T11:02:30.870Z,14.10
2018-11-03T11:05:05.417Z,13.10
2018-11-03T11:07:39.821Z,15.30
2018-11-03T11:10:30.697Z,17.30
2018-11-03T11:13:03.775Z,14.47
2018-11-03T11:15:32.974Z,16.20
2018-11-03T11:18:02.171Z,14.50
2018-11-03T11:20:31.390Z,13.53
2018-11-03T11:23:00.610Z,13.30
2018-11-03T11:25:29.963Z,15.93
2018-11-03T11:27:59.064Z,12.77
2018-11-03T11:30:33.669Z,13.07
2018-11-03T11:33:03.127Z,25.33
2018-11-03T11:35:32.541Z,23.33
2018-11-03T11:38:24.538Z,14.33
2018-11-03T11:40:53.721Z,15.13
2018-11-03T11:43:22.914Z,15.43
2018-11-03T11:45:52.239Z,15.60
2018-11-03T11:48:25.366Z,19.70
2018-11-03T11:51:23.597Z,16.57
2018-11-03T11:53:52.824Z,14.40
2018-11-03T11:56:22.014Z,17.00
2018-11-03T12:04:39.831Z,16.30
2018-11-03T12:07:25.266Z,17.13
2018-11-03T12:10:23.636Z,15.90
2018-11-03T12:12:52.886Z,17.17
2018-11-03T12:15:22.076Z,18.10
2018-11-03T12:22:27.950Z,18.27
2018-11-03T12:25:23.350Z,15.80
2018-11-03T12:33:53.941Z,13.20
2018-11-03T12:36:23.153Z,15.50
2018-11-03T12:38:52.343Z,14.43
2018-11-03T12:44:26.142Z,14.70
2018-11-03T12:47:22.422Z,16.57
2018-11-03T12:59:12.164Z,11.70
2018-11-03T13:01:41.334Z,12.30
2018-11-03T13:04:24.027Z,13.67
2018-11-03T13:07:22.480Z,12.60
2018-11-03T13:16:21.805Z,15.03
2018-11-03T13:18:51.064Z,11.70
2018-11-03T13:21:20.247Z,13.40
2018-11-03T13:24:12.187Z,10.77
2018-11-03T13:29:41.484Z,13.27
2018-11-03T13:32:12.417Z,12.93
2018-11-03T13:37:42.717Z,12.13
2018-11-03T13:40:24.163Z,13.63
2018-11-03T13:43:22.711Z,13.20
2018-11-03T13:45:52.888Z,14.63
2018-11-03T13:48:25.716Z,13.00
2018-11-03T13:51:24.213Z,13.50
2018-11-03T13:54:23.049Z,12.13
2018-11-03T13:59:53.097Z,14.27
2018-11-03T14:02:25.725Z,13.70
2018-11-03T14:05:24.373Z,11.33
2018-11-03T14:07:53.551Z,13.37
2018-11-03T14:10:22.775Z,13.10
2018-11-03T14:18:53.769Z,12.40
2018-11-03T14:21:22.961Z,13.93
2018-11-03T14:23:52.146Z,12.50
2018-11-03T14:26:26.907Z,12.17
2018-11-03T14:28:56.092Z,13.03
2018-11-03T14:31:25.290Z,12.30
2018-11-03T14:33:54.466Z,11.23
2018-11-03T14:36:24.044Z,12.43
2018-11-03T14:38:53.177Z,13.90
2018-11-03T14:41:25.766Z,12.60
2018-11-03T14:43:54.938Z,11.20
2018-11-03T14:46:24.295Z,12.10
2018-11-03T14:48:53.510Z,10.70
2018-11-03T14:51:22.713Z,12.53
2018-11-03T14:53:51.949Z,11.80
2018-11-03T14:56:27.148Z,12.23
2018-11-03T14:58:56.352Z,10.33
2018-11-03T15:01:26.232Z,14.43
2018-11-03T15:03:55.432Z,12.23
2018-11-03T15:06:24.745Z,14.40
2018-11-03T15:09:23.448Z,12.40
2018-11-03T15:18:22.701Z,15.97
2018-11-03T15:27:22.971Z,18.20
2018-11-03T15:29:52.181Z,15.63
2018-11-03T15:32:27.469Z,13.03
2018-11-03T15:35:22.562Z,15.93
2018-11-03T15:38:24.341Z,16.07
2018-11-03T15:44:22.864Z,13.73
2018-11-03T15:56:23.734Z,15.33
2018-11-03T15:59:22.605Z,27.53
2018-11-03T16:02:24.277Z,15.13
2018-11-03T16:08:22.974Z,15.87
2018-11-03T16:17:23.379Z,14.40
2018-11-03T16:19:52.587Z,15.10
2018-11-03T16:22:21.801Z,14.63
2018-11-03T16:27:51.133Z,13.27
2018-11-03T16:30:20.307Z,17.17
2018-11-03T16:32:49.545Z,16.23
2018-11-03T16:35:25.532Z,15.03
2018-11-03T16:38:24.422Z,15.10
2018-11-03T16:41:23.310Z,19.37
2018-11-03T16:47:23.044Z,16.73
2018-11-03T16:53:22.594Z,25.07
2018-11-03T16:56:24.481Z,16.87
2018-11-03T17:05:22.899Z,23.90
2018-11-03T17:11:24.559Z,22.90
2018-11-03T17:17:23.163Z,18.77
2018-11-03T17:19:52.341Z,37.07
2018-11-03T17:22:27.735Z,28.00
2018-11-03T17:24:57.003Z,37.63
2018-11-03T17:27:26.356Z,35.53
2018-11-03T17:30:23.003Z,36.57
2018-11-03T17:39:23.345Z,43.83
2018-11-03T17:45:23.262Z,32.83
2018-11-03T17:51:16.835Z,24.97
2018-11-03T17:53:46.026Z,39.10
2018-11-03T17:56:25.062Z,44.70
2018-11-03T17:59:23.169Z,43.30
2018-11-03T18:05:22.919Z,36.20
2018-11-03T18:07:52.285Z,33.80
2018-11-03T18:10:27.619Z,33.30
2018-11-03T18:13:23.093Z,25.13
2018-11-03T18:15:52.425Z,23.23
2018-11-03T18:18:22.197Z,33.70
2018-11-03T18:20:51.379Z,38.63
2018-11-03T18:23:20.582Z,44.27
2018-11-03T18:25:50.390Z,28.83
2018-11-03T18:28:19.565Z,47.73
2018-11-03T18:30:48.916Z,38.63
2018-11-03T18:33:18.180Z,37.87
2018-11-03T18:35:48.119Z,35.90
2018-11-03T18:38:18.095Z,43.67
2018-11-03T18:40:47.374Z,53.00
2018-11-03T18:43:16.541Z,38.73
2018-11-03T18:45:46.184Z,25.37
2018-11-03T18:48:15.381Z,33.10
2018-11-03T18:50:44.605Z,57.23
2018-11-03T18:53:14.790Z,41.73
2018-11-03T18:55:44.170Z,27.87
2018-11-03T18:58:13.357Z,38.93
2018-11-03T19:00:42.766Z,44.00
2018-11-03T19:03:11.946Z,58.53
2018-11-03T19:05:41.156Z,56.00
2018-11-03T19:08:10.836Z,54.43
2018-11-03T19:10:40.021Z,55.17
2018-11-03T19:13:09.283Z,66.73
2018-11-03T19:15:38.741Z,37.33
2018-11-03T19:18:24.786Z,48.57
2018-11-03T19:21:23.351Z,43.57
2018-11-03T19:23:52.654Z,38.60
2018-11-03T19:26:27.550Z,47.60
2018-11-03T19:29:44.509Z,48.07
2018-11-03T19:32:26.644Z,37.30
2018-11-03T19:34:55.847Z,36.40
2018-11-03T19:37:26.451Z,48.90
2018-11-03T19:40:24.497Z,44.03
2018-11-03T19:46:22.833Z,42.03
2018-11-03T19:51:52.074Z,60.67
2018-11-03T19:54:27.067Z,48.67
2018-11-03T20:00:22.802Z,38.70
2018-11-03T20:05:52.187Z,48.03
2018-11-03T20:08:27.518Z,29.50
2018-11-03T20:13:57.681Z,49.07
2018-11-03T20:16:26.826Z,51.43
2018-11-03T20:22:29.013Z,39.00
2018-11-03T20:24:58.298Z,54.63
2018-11-03T20:27:27.506Z,58.30
2018-11-03T20:29:56.846Z,60.57
2018-11-03T20:32:26.310Z,54.87
2018-11-03T20:34:55.686Z,65.73
2018-11-03T20:40:38.417Z,55.53
2018-11-03T20:43:08.398Z,52.43
2018-11-03T20:48:38.272Z,48.37
2018-11-03T20:51:08.590Z,38.30
2018-11-03T20:53:38.287Z,55.23
2018-11-03T20:56:08.097Z,46.73
2018-11-03T20:58:37.306Z,31.60
2018-11-03T21:01:06.884Z,33.93
2018-11-03T21:03:36.168Z,61.13
2018-11-03T21:12:40.437Z,56.70
2018-11-03T21:15:09.708Z,58.73
2018-11-03T21:17:39.054Z,36.73
2018-11-03T21:20:24.907Z,61.80
2018-11-03T21:26:29.202Z,61.57
2018-11-03T21:29:22.945Z,48.07
2018-11-03T21:34:27.092Z,56.53
2018-11-03T21:36:56.272Z,32.17
2018-11-03T21:39:25.809Z,48.00
2018-11-03T21:42:24.188Z,44.73
2018-11-03T21:45:23.037Z,58.87
2018-11-03T21:47:52.305Z,44.87
2018-11-03T21:50:27.517Z,33.30
2018-11-03T21:53:23.427Z,58.20
2018-11-03T21:55:52.678Z,35.43
2018-11-03T21:58:22.997Z,54.17
2018-11-03T22:03:53.126Z,62.60
2018-11-03T22:06:25.840Z,53.57
2018-11-03T22:09:24.141Z,32.03
2018-11-03T22:11:53.363Z,35.47
2018-11-03T22:14:26.521Z,61.43
2018-11-03T22:17:25.545Z,53.40
2018-11-03T22:19:54.875Z,49.87
2018-11-03T22:22:25.696Z,54.23
2018-11-03T22:25:24.129Z,57.73
2018-11-03T22:27:53.533Z,63.80
2018-11-03T22:30:22.892Z,54.83
2018-11-03T22:32:52.310Z,61.30
2018-11-03T22:35:21.486Z,56.03
2018-11-03T22:37:50.711Z,58.77
2018-11-03T22:40:20.098Z,57.73
2018-11-03T22:42:49.307Z,53.80
2018-11-03T22:45:18.503Z,60.60
2018-11-03T22:47:47.781Z,73.63
2018-11-03T22:50:17.613Z,60.80
2018-11-03T22:52:46.989Z,59.70
2018-11-03T22:55:16.690Z,50.90
2018-11-03T22:57:46.166Z,43.13
2018-11-03T23:00:15.509Z,48.20
2018-11-03T23:02:44.749Z,47.37
2018-11-03T23:05:14.497Z,62.20
2018-11-03T23:07:43.785Z,52.53
2018-11-03T23:10:13.022Z,58.57
2018-11-03T23:12:42.213Z,62.17
2018-11-03T23:15:11.908Z,62.33
2018-11-03T23:17:41.167Z,57.00
2018-11-03T23:20:35.093Z,54.73
2018-11-03T23:23:04.285Z,56.70
2018-11-03T23:25:33.466Z,59.40
2018-11-03T23:28:02.681Z,60.00
2018-11-03T23:30:31.877Z,66.13
2018-11-03T23:33:01.117Z,62.33
2018-11-03T23:35:30.327Z,58.13
2018-11-03T23:37:59.582Z,76.00
2018-11-03T23:40:28.767Z,64.93
2018-11-03T23:42:57.948Z,53.00
2018-11-03T23:45:27.142Z,64.13
2018-11-03T23:47:56.347Z,51.73
2018-11-03T23:50:25.564Z,56.90
2018-11-03T23:52:54.779Z,69.70
2018-11-03T23:55:23.981Z,42.97
2018-11-03T23:57:53.189Z,56.83
